createdAt,value
2023-04-08T00:00:35.210Z,5.44
2023-04-08T00:03:02.357Z,5.42
2023-04-08T00:05:29.259Z,5.24
2023-04-08T00:07:55.800Z,5.27
2023-04-08T00:10:22.496Z,5.17
2023-04-08T00:12:52.981Z,5.30
2023-04-08T00:15:22.594Z,5.45
2023-04-08T00:17:51.449Z,5.40
2023-04-08T00:20:18.061Z,5.42
2023-04-08T00:22:44.520Z,5.28
2023-04-08T00:25:11.073Z,5.21
2023-04-08T00:27:37.651Z,4.98
2023-04-08T00:30:04.558Z,5.03
2023-04-08T00:32:31.044Z,4.99
2023-04-08T00:34:57.737Z,5.07
2023-04-08T00:37:25.082Z,5.16
2023-04-08T00:39:54.712Z,5.06
2023-04-08T00:42:22.135Z,5.01
2023-04-08T00:44:48.847Z,5.09
2023-04-08T00:47:16.491Z,5.13
2023-04-08T00:49:44.047Z,5.19
2023-04-08T00:52:11.022Z,5.24
2023-04-08T00:54:38.119Z,5.29
2023-04-08T00:57:05.951Z,5.34
2023-04-08T00:59:33.544Z,5.26
2023-04-08T01:02:22.740Z,5.31
2023-04-08T01:05:14.585Z,5.32
2023-04-08T01:07:48.120Z,5.21
2023-04-08T01:10:23.369Z,5.28
2023-04-08T01:13:10.100Z,5.21
2023-04-08T01:15:39.227Z,5.09
2023-04-08T01:18:07.817Z,4.88
2023-04-08T01:20:34.824Z,4.94
2023-04-08T01:23:01.318Z,4.85
2023-04-08T01:25:30.370Z,4.69
2023-04-08T01:27:58.556Z,4.73
2023-04-08T01:30:26.059Z,4.86
2023-04-08T01:32:56.728Z,4.80
2023-04-08T01:35:26.598Z,4.68
2023-04-08T01:37:57.420Z,4.51
2023-04-08T01:40:27.346Z,4.53
2023-04-08T01:42:57.042Z,4.48
2023-04-08T01:45:24.726Z,4.36
2023-04-08T01:47:53.091Z,4.42
2023-04-08T01:50:21.064Z,4.49
2023-04-08T01:52:49.866Z,4.58
2023-04-08T01:55:17.490Z,4.57
2023-04-08T01:57:48.874Z,4.62
2023-04-08T02:00:18.441Z,4.50
2023-04-08T02:02:47.427Z,4.54
2023-04-08T02:05:14.785Z,4.41
2023-04-08T02:07:41.404Z,4.41
2023-04-08T02:10:08.218Z,4.37
2023-04-08T02:12:34.963Z,4.32
2023-04-08T02:15:01.520Z,4.29
2023-04-08T02:17:55.846Z,4.35
2023-04-08T02:20:38.097Z,4.32
2023-04-08T02:23:17.020Z,4.37
2023-04-08T02:25:45.658Z,4.41
2023-04-08T02:28:12.798Z,4.35
2023-04-08T02:30:43.374Z,4.30
2023-04-08T02:33:11.952Z,4.28
2023-04-08T02:35:40.763Z,4.24
2023-04-08T02:38:07.485Z,4.17
2023-04-08T02:40:35.434Z,4.01
2023-04-08T02:43:01.902Z,3.91
2023-04-08T02:45:32.281Z,3.80
2023-04-08T02:48:02.394Z,3.73
2023-04-08T02:50:29.212Z,3.67
2023-04-08T02:52:56.043Z,3.71
2023-04-08T02:55:22.506Z,3.78
2023-04-08T02:57:48.969Z,3.83
2023-04-08T03:00:16.142Z,3.83
2023-04-08T03:02:42.794Z,3.76
2023-04-08T03:05:10.471Z,3.90
2023-04-08T03:07:37.514Z,3.84
2023-04-08T03:10:04.604Z,3.82
2023-04-08T03:12:31.524Z,3.74
2023-04-08T03:14:58.621Z,3.70
2023-04-08T03:17:25.128Z,3.58
2023-04-08T03:19:51.602Z,3.39
2023-04-08T03:22:18.065Z,3.39
2023-04-08T03:24:44.504Z,3.22
2023-04-08T03:27:12.459Z,3.06
2023-04-08T03:29:38.953Z,2.97
2023-04-08T03:32:05.670Z,2.90
2023-04-08T03:34:34.658Z,2.92
2023-04-08T03:37:01.721Z,2.93
2023-04-08T03:39:28.261Z,2.90
2023-04-08T03:41:54.746Z,2.83
2023-04-08T03:44:21.285Z,2.90
2023-04-08T03:46:47.777Z,2.82
2023-04-08T03:49:14.434Z,2.85
2023-04-08T03:51:41.033Z,3.03
2023-04-08T03:54:07.892Z,2.99
2023-04-08T03:56:34.418Z,3.13
2023-04-08T03:59:04.396Z,3.26
2023-04-08T04:01:32.250Z,3.35
2023-04-08T04:03:59.141Z,3.38
2023-04-08T04:06:26.526Z,3.53
2023-04-08T04:08:56.126Z,3.61
2023-04-08T04:11:22.678Z,3.60
2023-04-08T04:13:49.409Z,3.53
2023-04-08T04:16:16.118Z,3.45
2023-04-08T04:18:42.914Z,3.43
2023-04-08T04:21:09.791Z,3.47
2023-04-08T04:23:36.350Z,3.53
2023-04-08T04:26:08.337Z,3.45
2023-04-08T04:28:34.815Z,3.45
2023-04-08T04:31:01.286Z,3.34
2023-04-08T04:33:27.779Z,3.17
2023-04-08T04:35:54.319Z,3.22
2023-04-08T04:38:21.204Z,3.47
2023-04-08T04:40:47.758Z,3.45
2023-04-08T04:43:14.246Z,3.34
2023-04-08T04:45:40.719Z,3.29
2023-04-08T04:48:07.589Z,3.16
2023-04-08T04:50:34.030Z,3.06
2023-04-08T04:53:07.309Z,2.92
2023-04-08T04:55:34.677Z,2.98
2023-04-08T04:58:02.599Z,3.01
2023-04-08T05:00:29.134Z,3.03
2023-04-08T05:02:55.673Z,3.07
2023-04-08T05:05:22.396Z,2.98
2023-04-08T05:07:48.933Z,3.20
2023-04-08T05:10:18.386Z,3.31
2023-04-08T05:12:44.891Z,3.34
2023-04-08T05:15:11.657Z,3.29
2023-04-08T05:17:38.381Z,3.30
2023-04-08T05:20:05.350Z,3.20
2023-04-08T05:22:34.574Z,3.27
2023-04-08T05:25:01.182Z,3.32
2023-04-08T05:27:27.774Z,3.27
2023-04-08T05:29:54.494Z,3.38
2023-04-08T05:32:20.991Z,3.52
2023-04-08T05:34:47.556Z,3.55
2023-04-08T05:37:14.035Z,3.65
2023-04-08T05:39:40.801Z,3.62
2023-04-08T05:42:07.309Z,3.65
2023-04-08T05:44:37.266Z,3.66
2023-04-08T05:47:07.171Z,3.70
2023-04-08T05:49:36.477Z,3.76
2023-04-08T05:52:06.907Z,3.69
2023-04-08T05:54:34.016Z,3.69
2023-04-08T05:57:00.469Z,3.67
2023-04-08T05:59:26.959Z,3.60
2023-04-08T06:01:55.267Z,3.52
2023-04-08T06:04:21.947Z,3.59
2023-04-08T06:06:48.498Z,3.67
2023-04-08T06:09:15.013Z,3.82
2023-04-08T06:11:41.696Z,3.86
2023-04-08T06:14:11.052Z,3.95
2023-04-08T06:16:37.577Z,4.05
2023-04-08T06:19:04.448Z,4.29
2023-04-08T06:21:30.982Z,4.17
2023-04-08T06:23:57.526Z,4.16
2023-04-08T06:26:24.084Z,4.18
2023-04-08T06:28:50.891Z,4.25
2023-04-08T06:31:17.588Z,4.57
2023-04-08T06:33:44.171Z,4.52
2023-04-08T06:36:13.134Z,4.48
2023-04-08T06:38:39.570Z,4.55
2023-04-08T06:41:07.276Z,4.51
2023-04-08T06:43:38.230Z,4.65
2023-04-08T06:46:04.956Z,4.91
2023-04-08T06:48:33.611Z,5.15
2023-04-08T06:51:01.714Z,5.32
2023-04-08T06:53:36.130Z,5.24
2023-04-08T06:56:05.829Z,5.40
2023-04-08T06:58:33.529Z,5.41
2023-04-08T07:01:01.172Z,5.42
2023-04-08T07:03:27.777Z,5.50
2023-04-08T07:05:54.339Z,5.59
2023-04-08T07:08:20.842Z,5.59
2023-04-08T07:10:47.516Z,5.80
2023-04-08T07:13:14.085Z,5.97
2023-04-08T07:15:41.293Z,6.13
2023-04-08T07:18:07.745Z,5.88
2023-04-08T07:20:38.517Z,6.06
2023-04-08T07:23:05.238Z,6.16
2023-04-08T07:25:36.319Z,6.23
2023-04-08T07:28:06.259Z,6.30
2023-04-08T07:30:36.774Z,6.38
2023-04-08T07:33:06.413Z,6.24
2023-04-08T07:35:36.224Z,6.29
2023-04-08T07:38:05.734Z,6.52
2023-04-08T07:40:32.910Z,7.11
2023-04-08T07:42:59.542Z,7.65
2023-04-08T07:45:26.001Z,8.06
2023-04-08T07:47:52.576Z,8.04
2023-04-08T07:50:19.113Z,8.14
2023-04-08T07:52:45.705Z,8.54
2023-04-08T07:55:12.340Z,9.08
2023-04-08T07:57:39.078Z,9.52
2023-04-08T08:00:06.549Z,10.07
2023-04-08T08:02:35.028Z,9.86
2023-04-08T08:05:06.441Z,9.90
2023-04-08T08:07:35.703Z,10.15
2023-04-08T08:10:03.431Z,10.50
2023-04-08T08:12:29.943Z,10.92
2023-04-08T08:14:59.048Z,11.47
2023-04-08T08:17:27.728Z,11.93
2023-04-08T08:19:54.693Z,12.28
2023-04-08T08:22:21.251Z,12.52
2023-04-08T08:24:47.806Z,13.06
2023-04-08T08:27:14.238Z,13.30
2023-04-08T08:29:40.951Z,13.55
2023-04-08T08:32:07.408Z,13.76
2023-04-08T08:34:36.621Z,14.00
2023-04-08T08:37:06.046Z,14.49
2023-04-08T08:39:36.662Z,14.70
2023-04-08T08:42:06.598Z,14.93
2023-04-08T08:44:36.738Z,15.37
2023-04-08T08:47:06.288Z,15.40
2023-04-08T08:49:35.762Z,15.82
2023-04-08T08:52:04.352Z,16.01
2023-04-08T08:54:31.587Z,16.72
2023-04-08T08:56:59.081Z,16.81
2023-04-08T08:59:25.560Z,16.96
2023-04-08T09:01:52.052Z,17.22
2023-04-08T09:04:22.635Z,17.42
2023-04-08T09:06:51.537Z,17.62
2023-04-08T09:09:18.295Z,17.96
2023-04-08T09:11:46.804Z,18.37
2023-04-08T09:14:24.564Z,18.80
2023-04-08T09:16:52.130Z,19.01
2023-04-08T09:19:19.533Z,19.42
2023-04-08T09:21:46.090Z,19.42
2023-04-08T09:24:29.266Z,19.68
2023-04-08T09:26:56.654Z,19.55
2023-04-08T09:29:29.928Z,19.11
2023-04-08T09:32:01.543Z,19.13
2023-04-08T09:34:34.664Z,19.50
2023-04-08T09:37:01.421Z,19.54
2023-04-08T09:39:27.919Z,19.95
2023-04-08T09:41:58.471Z,20.50
2023-04-08T09:44:29.052Z,20.43
2023-04-08T09:46:55.443Z,20.51
2023-04-08T09:49:44.612Z,20.72
2023-04-08T09:52:20.955Z,21.16
2023-04-08T09:54:59.578Z,21.16
2023-04-08T09:57:35.308Z,21.40
2023-04-08T10:00:10.398Z,21.71
2023-04-08T10:03:06.333Z,21.46
2023-04-08T10:05:39.043Z,21.70
2023-04-08T10:08:07.171Z,21.60
2023-04-08T10:10:40.398Z,22.03
2023-04-08T10:13:08.024Z,22.50
2023-04-08T10:15:39.774Z,22.91
2023-04-08T10:18:13.922Z,23.04
2023-04-08T10:20:43.221Z,22.63
2023-04-08T10:23:13.923Z,22.31
2023-04-08T10:25:42.245Z,22.24
2023-04-08T10:28:11.503Z,22.45
2023-04-08T10:30:44.898Z,22.40
2023-04-08T10:33:16.964Z,22.85
2023-04-08T10:35:53.810Z,23.23
2023-04-08T10:38:21.503Z,23.27
2023-04-08T10:40:48.938Z,23.55
2023-04-08T10:43:16.141Z,23.24
2023-04-08T10:45:44.766Z,22.93
2023-04-08T10:48:24.615Z,22.55
2023-04-08T10:50:59.607Z,22.84
2023-04-08T10:53:35.528Z,23.31
2023-04-08T10:56:16.343Z,23.62
2023-04-08T10:58:50.601Z,23.32
2023-04-08T11:01:17.462Z,23.26
2023-04-08T11:03:44.342Z,23.14
2023-04-08T11:06:11.936Z,23.23
2023-04-08T11:08:38.903Z,22.72
2023-04-08T11:11:10.950Z,22.49
2023-04-08T11:13:42.828Z,23.14
2023-04-08T11:16:18.129Z,23.71
2023-04-08T11:18:46.042Z,23.86
2023-04-08T11:21:12.812Z,23.85
2023-04-08T11:23:39.420Z,23.62
2023-04-08T11:26:06.550Z,23.80
2023-04-08T11:28:36.865Z,23.65
2023-04-08T11:31:06.308Z,24.09
2023-04-08T11:33:37.089Z,24.59
2023-04-08T11:36:12.592Z,23.87
2023-04-08T11:38:41.605Z,23.39
2023-04-08T11:41:08.300Z,23.83
2023-04-08T11:43:36.684Z,23.55
2023-04-08T11:46:12.979Z,24.12
2023-04-08T11:48:39.740Z,23.68
2023-04-08T11:51:12.515Z,23.22
2023-04-08T11:53:38.977Z,23.15
2023-04-08T11:56:22.907Z,23.29
2023-04-08T11:58:50.481Z,23.54
2023-04-08T12:01:17.004Z,23.40
2023-04-08T12:04:01.416Z,23.47
2023-04-08T12:06:29.433Z,24.23
2023-04-08T12:08:57.066Z,25.00
2023-04-08T12:11:23.835Z,23.88
2023-04-08T12:13:51.104Z,23.90
2023-04-08T12:16:18.812Z,23.96
2023-04-08T12:18:45.424Z,24.48
2023-04-08T12:21:12.039Z,24.77
2023-04-08T12:23:38.474Z,24.12
2023-04-08T12:26:08.122Z,24.31
2023-04-08T12:28:37.797Z,24.00
2023-04-08T12:31:07.636Z,24.19
2023-04-08T12:33:37.871Z,24.54
2023-04-08T12:36:07.297Z,24.30
2023-04-08T12:38:34.873Z,23.71
2023-04-08T12:41:01.552Z,22.97
2023-04-08T12:43:28.094Z,22.86
2023-04-08T12:45:54.627Z,23.31
2023-04-08T12:48:21.134Z,24.08
2023-04-08T12:50:47.584Z,23.69
2023-04-08T12:53:14.267Z,23.43
2023-04-08T12:55:42.612Z,23.26
2023-04-08T12:58:10.330Z,21.60
2023-04-08T13:00:40.308Z,21.82
2023-04-08T13:03:07.190Z,21.94
2023-04-08T13:05:43.272Z,22.21
2023-04-08T13:08:14.231Z,22.82
2023-04-08T13:10:42.124Z,22.83
2023-04-08T13:13:08.659Z,22.78
2023-04-08T13:15:38.106Z,23.25
2023-04-08T13:18:06.058Z,24.16
2023-04-08T13:20:36.710Z,24.99
2023-04-08T13:23:05.634Z,23.94
2023-04-08T13:25:37.243Z,22.18
2023-04-08T13:28:06.889Z,21.83
2023-04-08T13:30:35.635Z,22.07
2023-04-08T13:33:02.207Z,21.60
2023-04-08T13:35:31.224Z,21.66
2023-04-08T13:37:57.726Z,21.31
2023-04-08T13:40:24.181Z,21.54
2023-04-08T13:42:50.707Z,22.29
2023-04-08T13:45:17.186Z,22.57
2023-04-08T13:47:43.622Z,22.64
2023-04-08T13:50:10.861Z,23.15
2023-04-08T13:52:37.551Z,23.70
2023-04-08T13:55:07.355Z,24.17
2023-04-08T13:57:37.491Z,24.20
2023-04-08T14:00:07.859Z,23.45
2023-04-08T14:02:37.470Z,23.86
2023-04-08T14:05:07.242Z,23.74
2023-04-08T14:07:37.484Z,23.60
2023-04-08T14:10:07.796Z,23.47
2023-04-08T14:12:39.503Z,24.05
2023-04-08T14:15:06.582Z,24.42
2023-04-08T14:17:36.202Z,24.43
2023-04-08T14:20:05.322Z,24.84
2023-04-08T14:22:32.002Z,25.11
2023-04-08T14:24:58.565Z,25.49
2023-04-08T14:27:25.344Z,24.74
2023-04-08T14:29:51.805Z,25.43
2023-04-08T14:32:18.346Z,25.72
2023-04-08T14:34:45.000Z,25.71
2023-04-08T14:37:12.232Z,25.76
2023-04-08T14:39:38.715Z,25.42
2023-04-08T14:42:07.262Z,24.73
2023-04-08T14:44:33.766Z,24.39
2023-04-08T14:47:00.235Z,24.04
2023-04-08T14:49:26.710Z,24.34
2023-04-08T14:51:53.586Z,24.42
2023-04-08T14:54:20.391Z,24.88
2023-04-08T14:56:47.155Z,24.97
2023-04-08T14:59:13.644Z,24.85
2023-04-08T15:01:41.299Z,24.90
2023-04-08T15:04:10.747Z,24.85
2023-04-08T15:06:40.489Z,23.44
2023-04-08T15:09:12.386Z,23.12
2023-04-08T15:11:38.898Z,22.77
2023-04-08T15:14:05.499Z,22.39
2023-04-08T15:16:32.164Z,21.19
2023-04-08T15:19:00.368Z,21.37
2023-04-08T15:21:27.221Z,21.74
2023-04-08T15:23:54.142Z,21.92
2023-04-08T15:26:21.642Z,21.74
2023-04-08T15:28:48.218Z,21.57
2023-04-08T15:31:14.688Z,21.40
2023-04-08T15:33:42.980Z,21.81
2023-04-08T15:36:10.037Z,22.27
2023-04-08T15:38:38.293Z,22.45
2023-04-08T15:41:05.005Z,22.57
2023-04-08T15:43:31.480Z,22.67
2023-04-08T15:45:57.950Z,21.84
2023-04-08T15:48:24.426Z,21.47
2023-04-08T15:50:53.718Z,21.48
2023-04-08T15:53:20.589Z,20.90
2023-04-08T15:55:47.234Z,20.63
2023-04-08T15:58:13.710Z,20.28
2023-04-08T16:00:40.458Z,19.27
2023-04-08T16:03:11.996Z,19.46
2023-04-08T16:05:41.495Z,19.15
2023-04-08T16:08:11.665Z,18.85
2023-04-08T16:10:39.546Z,18.60
2023-04-08T16:13:08.370Z,19.14
2023-04-08T16:15:38.840Z,19.30
2023-04-08T16:18:09.914Z,19.72
2023-04-08T16:20:39.405Z,19.52
2023-04-08T16:23:07.495Z,19.11
2023-04-08T16:25:33.973Z,18.85
2023-04-08T16:28:00.438Z,18.96
2023-04-08T16:30:27.455Z,18.91
2023-04-08T16:32:54.074Z,18.61
2023-04-08T16:35:22.293Z,18.84
2023-04-08T16:37:48.927Z,18.56
2023-04-08T16:40:15.561Z,18.61
2023-04-08T16:42:42.562Z,18.84
2023-04-08T16:45:09.513Z,18.89
2023-04-08T16:47:38.375Z,18.93
2023-04-08T16:50:10.378Z,19.00
2023-04-08T16:52:39.935Z,19.28
2023-04-08T16:57:40.841Z,18.95
2023-04-08T17:00:10.995Z,18.85
2023-04-08T17:02:41.688Z,18.67
2023-04-08T17:05:09.081Z,18.12
2023-04-08T17:07:38.282Z,18.10
2023-04-08T17:10:06.076Z,18.12
2023-04-08T17:12:33.092Z,18.06
2023-04-08T17:15:01.444Z,17.98
2023-04-08T17:17:27.989Z,17.90
2023-04-08T17:19:54.726Z,18.07
2023-04-08T17:22:23.225Z,18.11
2023-04-08T17:24:49.813Z,18.17
2023-04-08T17:27:16.368Z,18.34
2023-04-08T17:29:45.914Z,18.24
2023-04-08T17:32:12.754Z,18.35
2023-04-08T17:34:41.801Z,17.64
2023-04-08T17:37:11.147Z,17.42
2023-04-08T17:39:41.134Z,17.19
2023-04-08T17:42:08.383Z,16.81
2023-04-08T17:44:35.014Z,16.51
2023-04-08T17:47:01.930Z,16.23
2023-04-08T17:52:46.309Z,15.58
2023-04-08T17:55:16.200Z,15.42
2023-04-08T17:57:42.899Z,15.29
2023-04-08T18:00:10.002Z,15.31
2023-04-08T18:02:38.442Z,15.28
2023-04-08T18:05:07.693Z,15.09
2023-04-08T18:07:35.390Z,15.05
2023-04-08T18:10:02.651Z,14.90
2023-04-08T18:12:29.505Z,14.65
2023-04-08T18:14:59.061Z,14.54
2023-04-08T18:17:26.198Z,14.43
2023-04-08T18:19:52.865Z,14.47
2023-04-08T18:22:20.636Z,14.36
2023-04-08T18:24:47.298Z,14.20
2023-04-08T18:27:13.811Z,14.10
2023-04-08T18:29:40.522Z,14.02
2023-04-08T18:32:11.049Z,13.90
2023-04-08T18:34:40.632Z,13.85
2023-04-08T18:37:11.032Z,13.89
2023-04-08T18:39:40.971Z,13.79
2023-04-08T18:42:10.959Z,13.65
2023-04-08T18:44:41.121Z,13.78
2023-04-08T18:47:11.073Z,13.52
2023-04-08T18:49:40.699Z,13.50
2023-04-08T18:52:10.061Z,13.54
2023-04-08T18:54:39.666Z,13.44
2023-04-08T18:57:08.282Z,13.45
2023-04-08T18:59:35.280Z,13.44
2023-04-08T19:02:01.836Z,13.37
2023-04-08T19:04:28.443Z,13.19
2023-04-08T19:06:55.072Z,13.17
2023-04-08T19:09:21.684Z,12.96
2023-04-08T19:11:48.489Z,12.87
2023-04-08T19:14:15.542Z,12.87
2023-04-08T19:16:42.157Z,12.75
2023-04-08T19:19:08.704Z,12.80
2023-04-08T19:21:38.362Z,12.66
2023-04-08T19:24:08.534Z,12.58
2023-04-08T19:26:38.335Z,12.45
2023-04-08T19:29:04.798Z,12.44
2023-04-08T19:31:31.357Z,12.43
2023-04-08T19:33:57.872Z,12.35
2023-04-08T19:36:24.353Z,12.31
2023-04-08T19:38:51.067Z,12.19
2023-04-08T19:41:17.613Z,12.15
2023-04-08T19:43:44.120Z,12.17
2023-04-08T19:46:10.751Z,12.08
2023-04-08T19:48:37.277Z,12.06
2023-04-08T19:51:03.872Z,11.90
2023-04-08T19:53:30.740Z,11.83
2023-04-08T19:56:01.750Z,11.69
2023-04-08T19:58:28.408Z,11.50
2023-04-08T20:00:54.827Z,11.41
2023-04-08T20:03:21.540Z,11.24
2023-04-08T20:05:48.210Z,11.18
2023-04-08T20:08:15.139Z,11.03
2023-04-08T20:10:42.446Z,11.12
2023-04-08T20:13:08.968Z,11.10
2023-04-08T20:15:35.731Z,11.17
2023-04-08T20:18:02.814Z,11.08
2023-04-08T20:20:30.124Z,10.85
2023-04-08T20:22:56.612Z,10.79
2023-04-08T20:25:23.221Z,10.64
2023-04-08T20:27:49.735Z,10.58
2023-04-08T20:30:16.696Z,10.43
2023-04-08T20:32:43.265Z,10.56
2023-04-08T20:35:13.426Z,10.56
2023-04-08T20:37:40.098Z,10.58
2023-04-08T20:40:08.322Z,10.53
2023-04-08T20:42:35.135Z,10.58
2023-04-08T20:45:01.851Z,10.50
2023-04-08T20:47:28.604Z,10.39
2023-04-08T20:49:55.130Z,10.19
2023-04-08T20:52:21.838Z,10.13
2023-04-08T20:54:48.318Z,10.13
2023-04-08T20:57:14.746Z,10.10
2023-04-08T20:59:44.040Z,10.08
2023-04-08T21:02:13.819Z,9.99
2023-04-08T21:04:43.972Z,9.83
2023-04-08T21:07:13.511Z,9.73
2023-04-08T21:09:43.221Z,9.74
2023-04-08T21:12:13.525Z,9.75
2023-04-08T21:14:45.225Z,9.65
2023-04-08T21:17:12.052Z,9.66
2023-04-08T21:19:38.516Z,9.60
2023-04-08T21:22:05.956Z,9.56
2023-04-08T21:24:33.041Z,9.43
2023-04-08T21:26:59.492Z,9.36
2023-04-08T21:29:26.009Z,9.40
2023-04-08T21:31:52.598Z,9.28
2023-04-08T21:34:19.097Z,9.01
2023-04-08T21:36:45.564Z,8.84
2023-04-08T21:39:15.145Z,8.84
2023-04-08T21:41:44.566Z,8.86
2023-04-08T21:44:14.114Z,8.89
2023-04-08T21:46:42.719Z,8.84
2023-04-08T21:49:13.505Z,8.70
2023-04-08T21:51:43.159Z,8.56
2023-04-08T21:54:09.658Z,8.53
2023-04-08T21:56:36.084Z,8.51
2023-04-08T21:59:02.502Z,8.43
2023-04-08T22:01:29.040Z,8.40
2023-04-08T22:03:56.253Z,8.37
2023-04-08T22:06:32.212Z,8.35
2023-04-08T22:08:59.574Z,8.33
2023-04-08T22:11:26.114Z,8.41
2023-04-08T22:13:52.610Z,8.41
2023-04-08T22:16:19.127Z,8.34
2023-04-08T22:18:45.700Z,8.27
2023-04-08T22:21:14.637Z,8.06
2023-04-08T22:23:42.002Z,8.13
2023-04-08T22:26:09.144Z,7.95
2023-04-08T22:28:35.717Z,8.04
2023-04-08T22:31:02.205Z,7.89
2023-04-08T22:33:28.744Z,7.83
2023-04-08T22:35:57.339Z,7.95
2023-04-08T22:38:23.912Z,7.98
2023-04-08T22:40:50.416Z,7.97
2023-04-08T22:43:16.832Z,7.76
2023-04-08T22:45:43.884Z,7.85
2023-04-08T22:48:10.624Z,7.92
2023-04-08T22:50:37.088Z,7.70
2023-04-08T22:53:03.800Z,7.71
2023-04-08T22:55:31.053Z,7.54
2023-04-08T22:57:57.658Z,7.52
2023-04-08T23:00:24.110Z,7.35
2023-04-08T23:02:50.730Z,7.42
2023-04-08T23:05:18.285Z,7.45
2023-04-08T23:07:47.072Z,7.58
2023-04-08T23:10:13.618Z,7.42
2023-04-08T23:12:40.485Z,7.64
2023-04-08T23:15:07.366Z,7.60
2023-04-08T23:17:33.799Z,7.64
2023-04-08T23:20:00.283Z,7.47
2023-04-08T23:22:26.753Z,7.45
2023-04-08T23:24:53.531Z,7.48
2023-04-08T23:27:20.339Z,7.35
2023-04-08T23:29:50.784Z,7.36
2023-04-08T23:32:18.472Z,7.28
2023-04-08T23:34:44.921Z,7.18
2023-04-08T23:37:11.377Z,7.15
2023-04-08T23:39:37.841Z,7.31
2023-04-08T23:42:04.340Z,7.27
2023-04-08T23:44:30.808Z,7.09
2023-04-08T23:46:57.256Z,7.00
2023-04-08T23:49:23.749Z,6.95
2023-04-08T23:51:50.318Z,6.96
2023-04-08T23:54:18.945Z,6.94
2023-04-08T23:56:45.480Z,6.89
2023-04-08T23:59:11.905Z,6.95
